Time;durP1;ratioP1;P1;durP2;ratioP2;P2;SDS_P1;SDS_P2;PMS_P1;PMS_P2;Temp;Humidity;BMP_temperature;BMP_pressure;BME280_temperature;BME280_humidity;BME280_pressure;Samples;Min_cycle;Max_cycle;Signal;HPM_P1;HPM_P2
2023/09/17 00:00:17;;;;;;;;;;;;;;;17.32;90.11;101308.38;1057431;27;19919;-54
2023/09/17 00:00:50;;;;;;;;;;;;;;;17.32;90.13;101304.88;1060758;27;19926;-54
2023/09/17 00:01:23;;;;;;;;;;;;;;;17.30;90.24;101308.63;1056675;28;20460;-54
2023/09/17 00:01:55;;;;;;;;;;;;;;;17.31;90.80;101309.44;1051393;28;20371;-53
2023/09/17 00:02:27;;;;;;;;;;;;;;;17.34;90.58;101308.94;1051864;28;20026;-53
2023/09/17 00:02:58;;;;;;;;;;;;;;;17.34;90.02;101308.94;1053166;28;20049;-53
2023/09/17 00:03:30;;;;;;;;;;;;;;;17.33;89.79;101307.31;1057423;27;19966;-54
2023/09/17 00:04:03;;;;;;;;;;;;;;;17.35;89.89;101310.56;1060635;27;20501;-55
2023/09/17 00:04:35;;;;;;;;;;;;;;;17.36;89.78;101312.19;1052050;28;19919;-55
2023/09/17 00:05:07;;;;;;;;;;;;;;;17.34;89.64;101311.63;1047961;28;20015;-55
2023/09/17 00:05:38;;;;;;;;;;;;;;;17.34;90.27;101314.31;1052245;28;19920;-55
2023/09/17 00:06:10;;;;;;;;;;;;;;;17.35;90.67;101310.56;1052797;28;19960;-55
2023/09/17 00:06:42;;;;;;;;;;;;;;;17.35;90.73;101312.44;1056594;28;19941;-55
2023/09/17 00:07:14;;;;;;;;;;;;;;;17.32;91.23;101313.75;1061159;27;20294;-55
2023/09/17 00:07:46;;;;;;;;;;;;;;;17.31;91.22;101314.81;1061000;27;19972;-55
2023/09/17 00:08:18;;;;;;;;;;;;;;;17.28;91.91;101309.94;1060819;27;19926;-55
2023/09/17 00:08:49;;;;;;;;;;;;;;;17.26;91.51;101320.97;1061466;27;19920;-54
2023/09/17 00:09:21;;;;;;;;;;;;;;;17.25;90.64;101319.28;1061933;27;20382;-54
2023/09/17 00:09:52;;;;;;;;;;;;;;;17.27;90.49;101319.06;1060308;27;19920;-54
2023/09/17 00:10:24;;;;;;;;;;;;;;;17.26;90.45;101323.66;1061049;27;19940;-53
2023/09/17 00:10:56;;;;;;;;;;;;;;;17.25;90.07;101305.84;1056441;28;19927;-53
2023/09/17 00:11:27;;;;;;;;;;;;;;;17.26;90.04;101312.06;1055871;28;19920;-55
2023/09/17 00:11:59;;;;;;;;;;;;;;;17.26;90.29;101312.06;1056441;28;20395;-55
2023/09/17 00:12:31;;;;;;;;;;;;;;;17.28;90.51;101307.25;1057050;27;20063;-55
2023/09/17 00:13:03;;;;;;;;;;;;;;;17.28;90.72;101309.94;1055960;28;19919;-55
2023/09/17 00:13:35;;;;;;;;;;;;;;;17.25;90.26;101305.84;1047877;28;19921;-55
2023/09/17 00:14:07;;;;;;;;;;;;;;;17.27;90.21;101303.75;1048219;28;20396;-54
2023/09/17 00:14:38;;;;;;;;;;;;;;;17.29;90.11;101309.69;1047710;28;19946;-53
2023/09/17 00:15:10;;;;;;;;;;;;;;;17.29;90.52;101306.19;1040275;28;19928;-53
2023/09/17 00:15:41;;;;;;;;;;;;;;;17.29;90.67;101300.78;1043878;28;19924;-54
2023/09/17 00:16:13;;;;;;;;;;;;;;;17.29;90.57;101308.88;1044369;28;19921;-54
2023/09/17 00:16:45;;;;;;;;;;;;;;;17.32;91.10;101304.88;1048496;28;19921;-53
2023/09/17 00:17:16;;;;;;;;;;;;;;;17.29;91.31;101306.19;1052036;28;20011;-54
2023/09/17 00:17:49;;;;;;;;;;;;;;;17.29;91.39;101312.38;1047996;28;20323;-53
2023/09/17 00:18:20;;;;;;;;;;;;;;;17.27;91.23;101311.00;1047894;28;19994;-53
2023/09/17 00:18:52;;;;;;;;;;;;;;;17.24;91.57;101304.22;1048197;28;19920;-54
2023/09/17 00:19:23;;;;;;;;;;;;;;;17.22;91.59;101311.72;1048021;28;20025;-55
2023/09/17 00:19:55;;;;;;;;;;;;;;;17.23;91.22;101312.53;1045700;28;20372;-55
2023/09/17 00:20:27;;;;;;;;;;;;;;;17.23;91.55;101313.34;1048301;28;20265;-55
2023/09/17 00:20:58;;;;;;;;;;;;;;;17.21;91.51;101310.09;1052649;28;19920;-54
2023/09/17 00:21:30;;;;;;;;;;;;;;;17.21;90.92;101314.66;1058062;27;20333;-55
2023/09/17 00:22:03;;;;;;;;;;;;;;;17.23;90.18;101312.53;1060867;27;19919;-54
2023/09/17 00:22:35;;;;;;;;;;;;;;;17.22;89.67;101310.91;1060761;27;19919;-53
2023/09/17 00:23:06;;;;;;;;;;;;;;;17.21;90.12;101312.78;1060897;27;19926;-54
2023/09/17 00:23:38;;;;;;;;;;;;;;;17.21;90.39;101314.66;1061132;27;20325;-54
2023/09/17 00:24:09;;;;;;;;;;;;;;;17.22;90.00;101310.91;1061441;27;19925;-55
2023/09/17 00:24:48;;;;;;;;;;;;;;;17.22;89.88;101316.28;1061656;27;20363;-55
2023/09/17 00:25:20;;;;;;;;;;;;;;;17.19;89.94;101314.91;1061180;27;19997;-55
2023/09/17 00:25:51;;;;;;;;;;;;;;;17.20;89.75;101313.03;1060645;27;20003;-55
2023/09/17 00:26:23;;;;;;;;;;;;;;;17.21;89.62;101312.78;1060708;27;19926;-54
2023/09/17 00:26:55;;;;;;;;;;;;;;;17.21;89.84;101312.78;1061133;27;20371;-54
2023/09/17 00:27:26;;;;;;;;;;;;;;;17.18;89.76;101315.97;1055949;28;19923;-54
2023/09/17 00:27:58;;;;;;;;;;;;;;;17.21;89.57;101309.28;1056018;28;20347;-54
2023/09/17 00:28:30;;;;;;;;;;;;;;;17.24;89.68;101311.47;1056577;28;19927;-53
2023/09/17 00:29:02;;;;;;;;;;;;;;;17.24;89.72;101303.41;1052222;28;19927;-54
2023/09/17 00:29:34;;;;;;;;;;;;;;;17.24;89.75;101314.97;1051611;28;19920;-54
2023/09/17 00:30:09;;;;;;;;;;;;;;;17.24;89.94;101304.22;1051933;28;19954;-53
2023/09/17 00:30:40;;;;;;;;;;;;;;;17.25;89.77;101311.22;1052259;28;19920;-53
2023/09/17 00:31:12;;;;;;;;;;;;;;;17.28;90.61;101309.94;1048430;28;19920;-54
2023/09/17 00:31:43;;;;;;;;;;;;;;;17.29;90.30;101312.38;1052719;28;19920;-54
2023/09/17 00:32:15;;;;;;;;;;;;;;;17.25;90.73;101305.03;1055858;28;19924;-54
2023/09/17 00:32:47;;;;;;;;;;;;;;;17.24;90.35;101314.97;1055928;28;19924;-54
2023/09/17 00:33:18;;;;;;;;;;;;;;;17.26;90.09;101306.69;1052244;28;19924;-53
2023/09/17 00:33:50;;;;;;;;;;;;;;;17.26;90.08;101307.50;1056211;28;19927;-54
2023/09/17 00:34:22;;;;;;;;;;;;;;;17.18;90.74;101315.97;1051890;28;20014;-54
2023/09/17 00:34:54;;;;;;;;;;;;;;;17.23;91.49;101309.84;1047998;28;19920;-55
2023/09/17 00:35:25;;;;;;;;;;;;;;;17.19;91.70;101311.41;1051902;28;20418;-55
2023/09/17 00:35:57;;;;;;;;;;;;;;;17.24;91.98;101322.25;1049572;28;20026;-55
2023/09/17 00:36:29;;;;;;;;;;;;;;;17.26;91.32;101320.13;1052386;28;20299;-55
2023/09/17 00:37:00;;;;;;;;;;;;;;;17.19;92.30;101317.59;1056466;28;20379;-53
2023/09/17 00:37:32;;;;;;;;;;;;;;;17.26;92.00;101322.84;1056546;28;20057;-53
2023/09/17 00:38:04;;;;;;;;;;;;;;;17.26;91.94;101322.84;1052039;28;19920;-54
2023/09/17 00:38:35;;;;;;;;;;;;;;;17.20;92.47;101326.50;1052081;28;19920;-53
2023/09/17 00:39:08;;;;;;;;;;;;;;;17.10;93.33;101315.59;1052050;28;20340;-54
2023/09/17 00:39:40;;;;;;;;;;;;;;;17.16;95.14;101322.69;1052933;28;19920;-54
2023/09/17 00:40:12;;;;;;;;;;;;;;;17.15;95.10;101323.75;1056390;28;19919;-54
2023/09/17 00:40:44;;;;;;;;;;;;;;;17.12;95.65;101326.94;1056494;28;19920;-54
2023/09/17 00:41:15;;;;;;;;;;;;;;;17.19;94.74;101320.28;1052475;28;19927;-54
2023/09/17 00:41:50;;;;;;;;;;;;;;;17.16;94.71;101322.69;1052585;28;20387;-53
2023/09/17 00:42:21;;;;;;;;;;;;;;;17.18;94.21;101310.59;1051915;28;19931;-54
2023/09/17 00:42:53;;;;;;;;;;;;;;;17.23;92.77;101312.53;1053158;28;20315;-54
2023/09/17 00:43:24;;;;;;;;;;;;;;;17.27;91.51;101308.31;1051824;28;19969;-54
2023/09/17 00:43:56;;;;;;;;;;;;;;;17.31;91.70;101309.44;1052135;28;20350;-54
2023/09/17 00:44:27;;;;;;;;;;;;;;;17.32;91.54;101311.06;1052264;28;20021;-54
2023/09/17 00:44:59;;;;;;;;;;;;;;;17.22;92.71;101311.72;1053581;28;19920;-54
2023/09/17 00:45:30;;;;;;;;;;;;;;;17.25;92.61;101310.41;1051704;28;20386;-54
2023/09/17 00:46:02;;;;;;;;;;;;;;;17.24;92.25;101308.78;1051958;28;19935;-54
2023/09/17 00:46:33;;;;;;;;;;;;;;;17.29;92.22;101309.69;1051902;28;20296;-54
2023/09/17 00:47:06;;;;;;;;;;;;;;;17.31;92.47;101309.44;1052041;28;20419;-53
2023/09/17 00:47:37;;;;;;;;;;;;;;;17.35;92.31;101312.44;1052001;28;19920;-54
2023/09/17 00:48:10;;;;;;;;;;;;;;;17.34;91.71;101308.13;1052074;28;20009;-54
2023/09/17 00:48:41;;;;;;;;;;;;;;;17.33;91.62;101310.00;1047758;28;20307;-53
2023/09/17 00:49:14;;;;;;;;;;;;;;;17.32;91.47;101311.06;1047587;28;19920;-53
2023/09/17 00:49:45;;;;;;;;;;;;;;;17.35;90.91;101307.88;1048431;28;19928;-54
2023/09/17 00:50:17;;;;;;;;;;;;;;;17.34;91.27;101314.31;1053100;28;19924;-54
2023/09/17 00:50:49;;;;;;;;;;;;;;;17.37;90.20;101313.81;1051954;28;19920;-54
2023/09/17 00:51:20;;;;;;;;;;;;;;;17.33;90.13;101299.22;1051687;28;20430;-54
2023/09/17 00:51:52;;;;;;;;;;;;;;;17.36;89.79;101306.81;1052273;28;20360;-54
2023/09/17 00:52:24;;;;;;;;;;;;;;;17.32;90.64;101305.69;1052171;28;20330;-53
2023/09/17 00:52:55;;;;;;;;;;;;;;;17.34;90.51;101303.53;1051880;28;19927;-54
2023/09/17 00:53:27;;;;;;;;;;;;;;;17.36;90.07;101300.59;1047960;28;19935;-54
2023/09/17 00:53:59;;;;;;;;;;;;;;;17.36;90.09;101300.59;1048331;28;20007;-53
2023/09/17 00:54:33;;;;;;;;;;;;;;;17.35;90.68;101299.78;1046587;28;19991;-55
2023/09/17 00:55:05;;;;;;;;;;;;;;;17.33;91.04;101296.53;1047822;28;19920;-54
2023/09/17 00:55:37;;;;;;;;;;;;;;;17.31;91.88;101304.06;1048505;28;19926;-53
2023/09/17 00:56:08;;;;;;;;;;;;;;;17.30;91.79;101302.41;1052411;28;20411;-54
2023/09/17 00:56:40;;;;;;;;;;;;;;;17.31;91.74;101304.06;1048330;28;19927;-53
2023/09/17 00:57:16;;;;;;;;;;;;;;;17.32;91.58;101299.47;1051799;28;19967;-53
2023/09/17 00:57:48;;;;;;;;;;;;;;;17.32;91.46;101302.16;1047999;28;20014;-54
2023/09/17 00:58:21;;;;;;;;;;;;;;;17.30;91.04;101302.41;1049269;28;19920;-55
2023/09/17 00:58:53;;;;;;;;;;;;;;;17.26;90.54;101301.28;1047698;28;19924;-54
2023/09/17 00:59:25;;;;;;;;;;;;;;;17.27;90.38;101298.34;1044750;28;19928;-55
2023/09/17 00:59:57;;;;;;;;;;;;;;;17.28;90.58;101307.25;1047828;28;19970;-55
2023/09/17 01:00:28;;;;;;;;;;;;;;;17.29;91.38;101295.41;1048257;28;19921;-54
2023/09/17 01:01:00;;;;;;;;;;;;;;;17.30;91.45;101302.41;1047623;28;20402;-53
2023/09/17 01:01:32;;;;;;;;;;;;;;;17.29;92.05;101300.78;1043637;28;19928;-54
2023/09/17 01:02:04;;;;;;;;;;;;;;;17.25;91.41;101299.63;1043626;28;20436;-54
2023/09/17 01:02:36;;;;;;;;;;;;;;;17.23;91.87;101291.00;1040938;28;19989;-53
2023/09/17 01:03:08;;;;;;;;;;;;;;;17.25;91.95;101299.63;1044280;28;19927;-54
2023/09/17 01:03:40;;;;;;;;;;;;;;;17.23;91.10;101296.38;1047656;28;19965;-53
2023/09/17 01:04:12;;;;;;;;;;;;;;;17.24;90.62;101295.31;1044315;28;20345;-53
2023/09/17 01:04:49;;;;;;;;;;;;;;;17.15;92.18;101304.91;1047918;28;19920;-54
2023/09/17 01:05:21;;;;;;;;;;;;;;;16.95;93.33;101303.53;1047935;28;20026;-54
2023/09/17 01:05:52;;;;;;;;;;;;;;;16.95;93.81;101303.53;1049098;28;20023;-53
2023/09/17 01:06:24;;;;;;;;;;;;;;;16.91;94.97;101305.09;1049044;28;19928;-54
2023/09/17 01:06:56;;;;;;;;;;;;;;;16.89;96.06;101307.22;1051748;28;19920;-53
2023/09/17 01:07:27;;;;;;;;;;;;;;;17.02;96.04;101310.66;1052047;28;19951;-53
2023/09/17 01:07:59;;;;;;;;;;;;;;;17.04;96.26;101306.66;1048031;28;19921;-54
2023/09/17 01:08:31;;;;;;;;;;;;;;;17.07;94.98;101308.03;1048017;28;19955;-53
2023/09/17 01:09:02;;;;;;;;;;;;;;;17.11;94.38;101309.16;1045687;28;20410;-53
2023/09/17 01:09:34;;;;;;;;;;;;;;;17.10;94.19;101291.38;1048318;28;19920;-53
2023/09/17 01:10:06;;;;;;;;;;;;;;;17.11;94.08;101301.06;1047888;28;20315;-53
2023/09/17 01:10:40;;;;;;;;;;;;;;;17.10;94.92;101297.56;1052256;28;20319;-54
2023/09/17 01:11:12;;;;;;;;;;;;;;;17.11;95.19;101296.50;1052165;28;19947;-53
2023/09/17 01:11:44;;;;;;;;;;;;;;;17.05;96.07;101304.75;1052803;28;19924;-54
2023/09/17 01:12:16;;;;;;;;;;;;;;;16.97;96.81;101292.53;1059544;28;19919;-54
2023/09/17 01:12:48;;;;;;;;;;;;;;;17.04;96.58;101303.13;1056458;28;19919;-54
2023/09/17 01:13:19;;;;;;;;;;;;;;;17.03;97.07;101298.81;1055845;28;20287;-54
2023/09/17 01:14:00;;;;;;;;;;;;;;;16.89;99.44;101301.03;1056276;28;20284;-55
2023/09/17 01:14:33;;;;;;;;;;;;;;;16.78;100.00;101304.63;1057626;27;19927;-54
2023/09/17 01:15:11;;;;;;;;;;;;;;;16.67;100.00;101306.34;1060837;27;19920;-55
2023/09/17 01:15:42;;;;;;;;;;;;;;;16.75;99.63;101303.25;1056889;28;20060;-55
2023/09/17 01:16:14;;;;;;;;;;;;;;;16.78;99.05;101305.44;1056094;28;19920;-55
2023/09/17 01:16:45;;;;;;;;;;;;;;;16.59;98.40;101295.97;1056579;28;20000;-55
2023/09/17 01:17:17;;;;;;;;;;;;;;;16.56;98.91;101304.53;1056413;28;19930;-55
2023/09/17 01:17:49;;;;;;;;;;;;;;;16.63;100.00;101300.59;1056003;28;20029;-54
2023/09/17 01:18:21;;;;;;;;;;;;;;;16.75;100.00;101303.25;1056448;28;20402;-55
2023/09/17 01:18:54;;;;;;;;;;;;;;;16.74;100.00;101307.00;1055393;28;20096;-55
2023/09/17 01:19:32;;;;;;;;;;;;;;;16.50;100.00;101297.44;1047527;28;19990;-54
2023/09/17 01:20:24;;;;;;;;;;;;;;;16.52;100.00;101300.69;1043061;28;19924;-53
2023/09/17 01:21:01;;;;;;;;;;;;;;;16.69;100.00;101296.97;1047552;28;19921;-52
2023/09/17 01:21:36;;;;;;;;;;;;;;;16.61;100.00;101296.53;1047416;28;19920;-52
2023/09/17 01:22:09;;;;;;;;;;;;;;;16.64;100.00;101293.34;1047715;28;19920;-53
2023/09/17 01:22:43;;;;;;;;;;;;;;;16.67;100.00;101298.25;1047589;28;20272;-53
2023/09/17 01:23:36;;;;;;;;;;;;;;;16.52;100.00;101289.94;1043509;28;19925;-51
2023/09/17 01:24:29;;;;;;;;;;;;;;;16.58;100.00;101292.47;1041690;28;19921;-52
2023/09/17 01:25:14;;;;;;;;;;;;;;;16.64;100.00;101287.97;1058477;28;20476;-53
2023/09/17 01:25:54;;;;;;;;;;;;;;;16.59;100.00;101282.50;1056178;28;19920;-53
2023/09/17 01:26:26;;;;;;;;;;;;;;;16.57;100.00;101287.31;1057445;28;19924;-54
2023/09/17 01:27:05;;;;;;;;;;;;;;;16.53;100.00;101275.44;1042089;28;20419;-52
2023/09/17 01:27:40;;;;;;;;;;;;;;;16.51;100.00;101274.88;1047129;28;19943;-53
2023/09/17 01:28:12;;;;;;;;;;;;;;;16.50;100.00;101278.63;1047774;28;19928;-53
2023/09/17 01:28:44;;;;;;;;;;;;;;;16.45;100.00;101273.16;1041115;28;19976;-53
2023/09/17 01:29:23;;;;;;;;;;;;;;;16.42;100.00;101279.00;1043654;28;19921;-52
2023/09/17 01:29:54;;;;;;;;;;;;;;;16.38;100.00;101276.00;1041200;28;20729;-52
2023/09/17 01:30:27;;;;;;;;;;;;;;;16.38;100.00;101278.69;1048826;28;20335;-52
2023/09/17 01:30:58;;;;;;;;;;;;;;;16.38;100.00;101276.00;1056153;28;19920;-52
2023/09/17 01:31:30;;;;;;;;;;;;;;;16.36;100.00;101283.47;1055824;28;19919;-51
2023/09/17 01:32:04;;;;;;;;;;;;;;;16.25;100.00;101279.81;1061484;28;19919;-52
2023/09/17 01:32:39;;;;;;;;;;;;;;;16.24;100.00;101275.50;1056893;28;19935;-51
2023/09/17 01:33:10;;;;;;;;;;;;;;;16.22;100.00;101277.63;1055928;28;19919;-50
2023/09/17 01:33:42;;;;;;;;;;;;;;;16.25;100.00;101270.94;1051959;28;20004;-50
2023/09/17 01:34:14;;;;;;;;;;;;;;;16.21;100.00;101267.94;1052291;28;20019;-51
2023/09/17 01:34:49;;;;;;;;;;;;;;;16.19;100.00;101263.84;1052016;28;20010;-52
2023/09/17 01:35:21;;;;;;;;;;;;;;;16.17;100.00;101260.59;1045442;28;19921;-49
2023/09/17 01:35:53;;;;;;;;;;;;;;;16.12;100.00;101257.78;1046806;28;19927;-52
2023/09/17 01:36:35;;;;;;;;;;;;;;;16.08;100.00;101263.66;1047990;28;20072;-51
2023/09/17 01:37:23;;;;;;;;;;;;;;;16.09;100.00;101253.72;1047734;28;20285;-52
2023/09/17 01:37:56;;;;;;;;;;;;;;;16.04;100.00;101251.78;1052099;28;20406;-49
2023/09/17 01:38:32;;;;;;;;;;;;;;;15.98;100.00;101255.44;1047048;28;20408;-51
2023/09/17 01:39:04;;;;;;;;;;;;;;;15.95;100.00;101252.41;1051911;28;20520;-49
2023/09/17 01:39:40;;;;;;;;;;;;;;;15.93;100.00;101243.78;1049701;28;19920;-51
2023/09/17 01:40:12;;;;;;;;;;;;;;;15.89;100.00;101240.78;1053613;28;20422;-50
2023/09/17 01:40:44;;;;;;;;;;;;;;;15.90;100.00;101249.66;1055876;28;20594;-50
2023/09/17 01:41:16;;;;;;;;;;;;;;;15.88;100.00;101241.78;1057372;28;20034;-53
2023/09/17 01:41:47;;;;;;;;;;;;;;;15.86;100.00;101238.53;1056005;28;19919;-52
2023/09/17 01:42:19;;;;;;;;;;;;;;;15.85;100.00;101241.47;1051924;28;20394;-53
2023/09/17 01:42:50;;;;;;;;;;;;;;;15.85;100.00;101238.78;1047827;28;20384;-53
2023/09/17 01:43:23;;;;;;;;;;;;;;;15.83;100.00;101241.72;1043748;28;19920;-52
2023/09/17 01:43:54;;;;;;;;;;;;;;;15.81;100.00;101234.94;1044222;28;19920;-53
2023/09/17 01:44:26;;;;;;;;;;;;;;;15.81;100.00;101238.44;1043236;28;19921;-53
2023/09/17 01:44:58;;;;;;;;;;;;;;;15.82;100.00;101239.25;1043695;28;19921;-53
2023/09/17 01:45:29;;;;;;;;;;;;;;;15.82;100.00;101239.25;1044471;28;20118;-53
2023/09/17 01:46:02;;;;;;;;;;;;;;;15.80;100.00;101238.69;1052363;28;19947;-54
2023/09/17 01:46:35;;;;;;;;;;;;;;;15.82;100.00;101236.56;1046146;28;20307;-53
2023/09/17 01:47:07;;;;;;;;;;;;;;;15.77;100.00;101235.44;1045288;28;19921;-53
2023/09/17 01:47:38;;;;;;;;;;;;;;;15.79;100.00;101239.75;1040285;28;20052;-53
2023/09/17 01:48:10;;;;;;;;;;;;;;;15.80;100.00;101249.44;1039427;28;20296;-53
2023/09/17 01:48:42;;;;;;;;;;;;;;;15.60;100.00;101245.31;1035630;28;20056;-53
2023/09/17 01:49:14;;;;;;;;;;;;;;;15.72;100.00;101248.78;1031519;28;20080;-53
2023/09/17 01:49:46;;;;;;;;;;;;;;;15.70;100.00;101248.19;1031678;28;19921;-54
2023/09/17 01:50:19;;;;;;;;;;;;;;;15.53;100.00;101255.34;1040595;28;20056;-53
2023/09/17 01:50:51;;;;;;;;;;;;;;;15.45;100.00;101253.03;1044049;28;19921;-54
2023/09/17 01:51:23;;;;;;;;;;;;;;;15.43;100.00;101249.78;1049006;28;19967;-52
2023/09/17 01:51:56;;;;;;;;;;;;;;;15.68;100.00;101257.56;1048096;28;20380;-54
2023/09/17 01:52:32;;;;;;;;;;;;;;;15.74;100.00;101246.66;1048715;28;19920;-53
2023/09/17 01:53:03;;;;;;;;;;;;;;;15.67;100.00;101251.38;1048310;28;19924;-54
2023/09/17 01:53:35;;;;;;;;;;;;;;;15.74;100.00;101256.59;1048895;28;19931;-55
2023/09/17 01:54:07;;;;;;;;;;;;;;;15.83;100.00;101257.00;1051839;28;19934;-54
2023/09/17 01:54:38;;;;;;;;;;;;;;;15.87;100.00;101250.09;1051460;28;20336;-54
2023/09/17 01:55:10;;;;;;;;;;;;;;;15.88;100.00;101249.03;1047246;28;19924;-54
2023/09/17 01:55:41;;;;;;;;;;;;;;;15.92;100.00;101247.53;1047192;28;20374;-54
2023/09/17 01:56:13;;;;;;;;;;;;;;;15.91;100.00;101253.97;1047763;28;19924;-54
2023/09/17 01:56:47;;;;;;;;;;;;;;;15.91;100.00;101245.91;1044078;28;19921;-53
2023/09/17 01:57:18;;;;;;;;;;;;;;;15.93;100.00;101251.84;1043329;28;19924;-54
2023/09/17 01:57:50;;;;;;;;;;;;;;;15.95;100.00;101245.16;1039488;28;20006;-53
2023/09/17 01:58:22;;;;;;;;;;;;;;;15.89;100.00;101242.66;1044379;28;19970;-54
2023/09/17 01:58:54;;;;;;;;;;;;;;;15.92;100.00;101253.72;1043237;28;19968;-54
2023/09/17 01:59:26;;;;;;;;;;;;;;;15.92;100.00;101242.97;1051826;28;20046;-55
2023/09/17 01:59:57;;;;;;;;;;;;;;;15.91;100.00;101243.22;1043987;28;20424;-55
2023/09/17 02:00:29;;;;;;;;;;;;;;;15.91;100.00;101243.22;1047521;28;19925;-54
2023/09/17 02:01:00;;;;;;;;;;;;;;;15.94;100.00;101246.22;1043939;28;20005;-54
2023/09/17 02:01:32;;;;;;;;;;;;;;;15.93;100.00;101239.22;1048643;28;20106;-54
2023/09/17 02:02:04;;;;;;;;;;;;;;;15.90;100.00;101238.91;1056003;28;20438;-55
2023/09/17 02:02:36;;;;;;;;;;;;;;;15.87;100.00;101239.34;1056239;28;19930;-53
2023/09/17 02:03:08;;;;;;;;;;;;;;;15.85;100.00;101241.47;1060295;28;20257;-54
2023/09/17 02:03:40;;;;;;;;;;;;;;;15.89;100.00;101243.47;1058145;28;20358;-54
2023/09/17 02:04:12;;;;;;;;;;;;;;;15.89;100.00;101234.59;1056566;28;20007;-54
2023/09/17 02:04:43;;;;;;;;;;;;;;;15.88;100.00;101243.66;1056005;28;20297;-54
2023/09/17 02:05:20;;;;;;;;;;;;;;;15.91;100.00;101241.34;1056370;28;20383;-55
2023/09/17 02:05:51;;;;;;;;;;;;;;;15.90;100.00;101238.91;1051782;28;20420;-54
2023/09/17 02:06:23;;;;;;;;;;;;;;;15.89;100.00;101242.66;1051838;28;19924;-54
2023/09/17 02:06:55;;;;;;;;;;;;;;;15.90;100.00;101249.66;1052111;28;20417;-55
2023/09/17 02:07:26;;;;;;;;;;;;;;;15.88;100.00;101246.34;1047891;28;20026;-54
2023/09/17 02:07:58;;;;;;;;;;;;;;;15.88;100.00;101249.84;1051783;28;19924;-54
2023/09/17 02:08:30;;;;;;;;;;;;;;;15.88;100.00;101252.53;1051978;28;20439;-54
2023/09/17 02:09:05;;;;;;;;;;;;;;;15.87;100.00;101248.22;1052793;28;20387;-52
2023/09/17 02:09:37;;;;;;;;;;;;;;;15.86;100.00;101253.84;1057010;28;19923;-52
2023/09/17 02:10:08;;;;;;;;;;;;;;;15.82;100.00;101247.31;1056794;28;19924;-49
2023/09/17 02:10:40;;;;;;;;;;;;;;;15.79;100.00;101255.88;1056304;28;19931;-53
2023/09/17 02:11:13;;;;;;;;;;;;;;;15.80;100.00;101260.19;1056213;28;19930;-52
2023/09/17 02:11:45;;;;;;;;;;;;;;;15.77;100.00;101256.91;1051815;28;19924;-50
2023/09/17 02:12:16;;;;;;;;;;;;;;;15.81;100.00;101267.19;1051882;28;20026;-50
2023/09/17 02:12:48;;;;;;;;;;;;;;;15.80;100.00;101254.81;1051615;28;20283;-51
2023/09/17 02:13:19;;;;;;;;;;;;;;;15.80;100.00;101261.00;1052485;28;19935;-53
2023/09/17 02:13:51;;;;;;;;;;;;;;;15.74;100.00;101260.09;1051913;28;19928;-50
2023/09/17 02:14:23;;;;;;;;;;;;;;;15.71;100.00;101260.56;1051601;28;20387;-52
2023/09/17 02:14:55;;;;;;;;;;;;;;;15.70;100.00;101267.00;1047552;28;19952;-52
2023/09/17 02:15:27;;;;;;;;;;;;;;;15.66;100.00;101270.41;1043934;28;20533;-50
2023/09/17 02:15:58;;;;;;;;;;;;;;;15.74;100.00;101262.78;1043158;28;20000;-53
2023/09/17 02:16:31;;;;;;;;;;;;;;;15.71;100.00;101265.94;1039518;28;19956;-51
2023/09/17 02:17:08;;;;;;;;;;;;;;;15.72;100.00;101267.56;1044221;28;20012;-55
2023/09/17 02:17:44;;;;;;;;;;;;;;;15.70;100.00;101269.69;1043250;28;19920;-54
2023/09/17 02:18:15;;;;;;;;;;;;;;;15.74;100.00;101272.72;1045470;28;19921;-55
2023/09/17 02:18:47;;;;;;;;;;;;;;;15.77;100.00;101272.22;1044434;28;19928;-54
2023/09/17 02:19:19;;;;;;;;;;;;;;;15.68;100.00;101279.03;1043364;28;19921;-55
2023/09/17 02:19:50;;;;;;;;;;;;;;;15.54;100.00;101278.47;1043914;28;19944;-55
2023/09/17 02:20:22;;;;;;;;;;;;;;;15.64;100.00;101283.25;1048251;28;19928;-55
2023/09/17 02:20:53;;;;;;;;;;;;;;;15.43;100.00;101277.44;1052104;28;20234;-55
2023/09/17 02:21:25;;;;;;;;;;;;;;;15.59;100.00;101286.63;1051682;28;19928;-55
2023/09/17 02:21:56;;;;;;;;;;;;;;;15.67;100.00;101288.97;1052031;28;20433;-55
2023/09/17 02:22:28;;;;;;;;;;;;;;;15.67;100.00;101294.34;1051375;28;19927;-55
2023/09/17 02:22:59;;;;;;;;;;;;;;;15.59;100.00;101292.00;1047837;28;20080;-55
2023/09/17 02:23:31;;;;;;;;;;;;;;;15.55;100.00;101300.75;1052042;28;19927;-55
2023/09/17 02:24:03;;;;;;;;;;;;;;;15.29;100.00;101296.72;1047158;28;19927;-54
2023/09/17 02:24:36;;;;;;;;;;;;;;;15.47;100.00;101304.63;1047683;28;19920;-55
2023/09/17 02:25:07;;;;;;;;;;;;;;;15.51;100.00;101310.34;1052009;28;19920;-54
2023/09/17 02:25:39;;;;;;;;;;;;;;;15.38;100.00;101312.25;1048894;28;19920;-54
2023/09/17 02:26:12;;;;;;;;;;;;;;;15.53;100.00;101325.16;1052435;28;19927;-55
2023/09/17 02:26:44;;;;;;;;;;;;;;;15.35;100.00;101325.31;1052317;28;19934;-55
2023/09/17 02:27:16;;;;;;;;;;;;;;;15.48;100.00;101329.63;1052593;28;19920;-52
2023/09/17 02:27:47;;;;;;;;;;;;;;;15.58;100.00;101321.75;1052561;28;19919;-52
2023/09/17 02:28:19;;;;;;;;;;;;;;;15.41;100.00;101321.69;1055998;27;20030;-53
2023/09/17 02:28:50;;;;;;;;;;;;;;;15.33;100.00;101308.63;1061736;27;19920;-52
2023/09/17 02:29:22;;;;;;;;;;;;;;;15.48;100.00;101311.63;1062201;27;19927;-55
2023/09/17 02:29:57;;;;;;;;;;;;;;;15.48;100.00;101306.25;1060711;27;20011;-52
2023/09/17 02:30:28;;;;;;;;;;;;;;;15.53;100.00;101302.88;1056488;28;20575;-52
2023/09/17 02:31:02;;;;;;;;;;;;;;;15.53;100.00;101292.94;1056711;28;19982;-52
2023/09/17 02:31:34;;;;;;;;;;;;;;;15.50;100.00;101295.28;1056441;28;19919;-52
2023/09/17 02:32:06;;;;;;;;;;;;;;;15.57;100.00;101288.72;1055960;28;19997;-52
2023/09/17 02:32:38;;;;;;;;;;;;;;;15.53;100.00;101287.56;1053288;28;20372;-55
2023/09/17 02:33:10;;;;;;;;;;;;;;;15.54;100.00;101285.69;1056857;28;20319;-54
2023/09/17 02:33:42;;;;;;;;;;;;;;;15.51;100.00;101284.31;1056555;28;20490;-54
2023/09/17 02:34:14;;;;;;;;;;;;;;;15.49;100.00;101286.41;1057165;27;19920;-54
2023/09/17 02:34:45;;;;;;;;;;;;;;;15.48;100.00;101279.41;1061120;27;20405;-55
2023/09/17 02:35:17;;;;;;;;;;;;;;;15.47;100.00;101283.16;1061076;27;19923;-55
2023/09/17 02:35:50;;;;;;;;;;;;;;;15.52;100.00;101280.56;1056520;28;19928;-55
2023/09/17 02:36:22;;;;;;;;;;;;;;;15.51;100.00;101278.13;1052671;28;20019;-55
2023/09/17 02:36:54;;;;;;;;;;;;;;;15.55;100.00;101274.72;1052268;28;19920;-55
2023/09/17 02:37:26;;;;;;;;;;;;;;;15.58;100.00;101276.97;1053038;28;20005;-55
2023/09/17 02:37:57;;;;;;;;;;;;;;;15.55;100.00;101274.72;1056929;28;19973;-55
2023/09/17 02:38:29;;;;;;;;;;;;;;;15.57;100.00;101272.59;1056585;28;19919;-55
2023/09/17 02:39:00;;;;;;;;;;;;;;;15.54;100.00;101266.91;1059075;27;19926;-50
2023/09/17 02:39:32;;;;;;;;;;;;;;;15.59;100.00;101269.72;1056760;28;19920;-50
2023/09/17 02:40:08;;;;;;;;;;;;;;;15.60;100.00;101272.16;1056419;28;19923;-51
2023/09/17 02:40:40;;;;;;;;;;;;;;;15.60;100.00;101272.16;1056556;28;19919;-52
2023/09/17 02:41:12;;;;;;;;;;;;;;;15.62;100.00;101270.09;1056545;28;19965;-52
2023/09/17 02:41:43;;;;;;;;;;;;;;;15.57;100.00;101269.94;1052479;28;19973;-52
2023/09/17 02:42:15;;;;;;;;;;;;;;;15.44;100.00;101272.91;1052378;28;19971;-52
2023/09/17 02:42:47;;;;;;;;;;;;;;;15.51;100.00;101273.56;1053820;28;19968;-52
2023/09/17 02:43:19;;;;;;;;;;;;;;;15.24;100.00;101269.78;1048669;28;19920;-51
2023/09/17 02:43:50;;;;;;;;;;;;;;;15.07;100.00;101267.03;1053107;28;19924;-53
2023/09/17 02:44:22;;;;;;;;;;;;;;;15.17;100.00;101271.78;1056337;28;20368;-52
2023/09/17 02:44:55;;;;;;;;;;;;;;;15.32;100.00;101264.03;1057374;27;19919;-52
2023/09/17 02:45:27;;;;;;;;;;;;;;;15.38;100.00;101263.13;1061062;27;19919;-52
2023/09/17 02:45:59;;;;;;;;;;;;;;;15.42;100.00;101266.94;1060997;27;19927;-52